createdAt,value
2023-07-10T00:01:17.930Z,0.98
2023-07-10T00:03:44.861Z,0.10
2023-07-10T00:06:13.476Z,0.50
2023-07-10T00:08:42.289Z,0.75
2023-07-10T00:11:41.034Z,0.43
2023-07-10T00:14:18.312Z,0.52
2023-07-10T00:16:45.355Z,0.85
2023-07-10T00:19:12.975Z,0.25
2023-07-10T00:21:39.984Z,0.40
2023-07-10T00:24:07.019Z,0.20
2023-07-10T00:26:33.833Z,0.63
2023-07-10T00:29:06.395Z,1.13
2023-07-10T00:31:34.060Z,0.20
2023-07-10T00:34:01.306Z,0.70
2023-07-10T00:36:34.359Z,1.42
2023-07-10T00:39:12.274Z,0.35
2023-07-10T00:41:41.158Z,0.43
2023-07-10T00:44:08.696Z,0.75
2023-07-10T00:46:42.926Z,1.75
2023-07-10T00:49:38.561Z,0.20
2023-07-10T00:52:28.043Z,0.40
2023-07-10T00:54:58.319Z,0.35
2023-07-10T00:57:36.702Z,0.77
2023-07-10T01:00:21.186Z,0.43
2023-07-10T01:02:48.907Z,0.80
2023-07-10T01:05:18.746Z,1.80
2023-07-10T01:07:52.630Z,0.88
2023-07-10T01:10:19.692Z,0.52
2023-07-10T01:12:47.960Z,0.32
2023-07-10T01:15:18.531Z,0.60
2023-07-10T01:17:48.262Z,0.82
2023-07-10T01:20:26.886Z,0.30
2023-07-10T01:22:53.872Z,0.65
2023-07-10T01:25:21.014Z,0.57
2023-07-10T01:27:47.889Z,0.43
2023-07-10T01:30:34.935Z,0.17
2023-07-10T01:33:02.733Z,0.10
2023-07-10T01:35:32.803Z,0.20
2023-07-10T01:37:59.868Z,0.55
2023-07-10T01:40:38.695Z,1.10
2023-07-10T01:43:05.651Z,0.25
2023-07-10T01:45:46.692Z,0.52
2023-07-10T01:48:15.174Z,0.57
2023-07-10T01:50:42.360Z,0.90
2023-07-10T01:53:10.734Z,0.20
2023-07-10T01:55:44.402Z,0.80
2023-07-10T01:58:14.768Z,0.65
2023-07-10T02:00:42.350Z,0.60
2023-07-10T02:03:09.784Z,0.50
2023-07-10T02:05:36.692Z,0.30
2023-07-10T02:08:03.656Z,0.30
2023-07-10T02:10:44.551Z,0.43
2023-07-10T02:15:39.214Z,0.17
2023-07-10T02:18:06.166Z,1.20
2023-07-10T02:20:33.024Z,0.68
2023-07-10T02:22:59.826Z,0.93
2023-07-10T02:25:27.269Z,0.80
2023-07-10T02:27:54.079Z,0.20
2023-07-10T02:30:20.930Z,0.93
2023-07-10T02:32:47.742Z,1.15
2023-07-10T02:35:14.692Z,0.10
2023-07-10T02:37:41.480Z,0.70
2023-07-10T02:40:08.745Z,0.35
2023-07-10T02:42:35.561Z,0.32
2023-07-10T02:45:02.514Z,0.75
2023-07-10T02:47:29.389Z,0.22
2023-07-10T02:49:56.272Z,0.60
2023-07-10T02:52:23.060Z,0.52
2023-07-10T02:54:49.884Z,0.45
2023-07-10T02:57:16.748Z,0.28
2023-07-10T02:59:43.574Z,0.60
2023-07-10T03:02:10.355Z,0.40
2023-07-10T03:04:37.267Z,0.60
2023-07-10T03:07:04.840Z,0.75
2023-07-10T03:09:31.620Z,0.63
2023-07-10T03:11:58.438Z,0.40
2023-07-10T03:14:25.238Z,0.73
2023-07-10T03:16:52.227Z,1.02
2023-07-10T03:19:19.027Z,1.02
2023-07-10T03:21:46.036Z,0.80
2023-07-10T03:24:12.916Z,1.75
2023-07-10T03:26:39.753Z,0.45
2023-07-10T03:29:12.582Z,0.22
2023-07-10T03:31:39.602Z,0.28
2023-07-10T03:34:07.081Z,0.30
2023-07-10T03:36:34.105Z,0.50
2023-07-10T03:39:01.002Z,0.93
2023-07-10T03:41:28.137Z,0.32
2023-07-10T03:43:56.219Z,0.65
2023-07-10T03:46:23.320Z,0.25
2023-07-10T03:48:50.373Z,0.10
2023-07-10T03:51:18.198Z,0.63
2023-07-10T03:53:45.392Z,0.40
2023-07-10T03:56:12.258Z,0.47
2023-07-10T03:58:44.433Z,0.47
2023-07-10T04:01:12.348Z,1.15
2023-07-10T04:03:40.601Z,0.20
2023-07-10T04:06:10.231Z,0.82
2023-07-10T04:08:39.314Z,0.90
2023-07-10T04:11:18.778Z,1.48
2023-07-10T04:13:45.715Z,0.10
2023-07-10T04:16:27.599Z,0.40
2023-07-10T04:21:24.942Z,0.68
2023-07-10T04:23:52.318Z,0.20
2023-07-10T04:26:24.661Z,0.20
2023-07-10T04:28:53.729Z,0.90
2023-07-10T04:31:22.785Z,0.30
2023-07-10T04:33:51.260Z,0.75
2023-07-10T04:36:19.206Z,0.85
2023-07-10T04:38:46.664Z,0.30
2023-07-10T04:41:16.859Z,0.77
2023-07-10T04:43:43.718Z,0.73
2023-07-10T04:46:12.639Z,1.02
2023-07-10T04:48:39.755Z,1.08
2023-07-10T04:51:09.169Z,0.45
2023-07-10T04:53:36.173Z,1.63
2023-07-10T04:56:06.046Z,0.30
2023-07-10T04:58:46.970Z,0.35
2023-07-10T05:01:13.934Z,1.20
2023-07-10T05:03:40.768Z,0.43
2023-07-10T05:06:07.619Z,0.63
2023-07-10T05:08:34.440Z,0.30
2023-07-10T05:11:02.195Z,0.35
2023-07-10T05:13:30.065Z,0.63
2023-07-10T05:15:58.588Z,0.85
2023-07-10T05:18:27.234Z,2.13
2023-07-10T05:20:54.767Z,1.23
2023-07-10T05:23:25.661Z,0.55
2023-07-10T05:26:11.387Z,1.80
2023-07-10T05:28:38.959Z,0.77
2023-07-10T05:31:08.119Z,0.95
2023-07-10T05:33:35.358Z,0.60
2023-07-10T05:36:06.241Z,0.82
2023-07-10T05:38:35.222Z,0.90
2023-07-10T05:41:02.420Z,0.75
2023-07-10T05:43:30.478Z,1.13
2023-07-10T05:45:57.947Z,0.82
2023-07-10T05:48:25.130Z,0.68
2023-07-10T05:50:52.850Z,1.10
2023-07-10T05:53:20.469Z,1.10
2023-07-10T05:55:50.525Z,0.60
2023-07-10T05:58:18.358Z,0.52
2023-07-10T06:00:49.431Z,0.75
2023-07-10T06:03:16.396Z,0.68
2023-07-10T06:05:43.269Z,1.15
2023-07-10T06:08:11.567Z,0.90
2023-07-10T06:10:38.808Z,1.25
2023-07-10T06:13:05.644Z,1.88
2023-07-10T06:15:32.883Z,0.98
2023-07-10T06:17:59.909Z,1.20
2023-07-10T06:20:27.631Z,0.73
2023-07-10T06:22:54.576Z,1.20
2023-07-10T06:25:21.374Z,0.25
2023-07-10T06:27:49.521Z,0.68
2023-07-10T06:30:18.590Z,1.52
2023-07-10T06:32:45.506Z,1.00
2023-07-10T06:35:15.025Z,1.13
2023-07-10T06:37:42.596Z,1.02
2023-07-10T06:40:15.367Z,1.08
2023-07-10T06:42:43.540Z,0.90
2023-07-10T06:45:12.105Z,0.75
2023-07-10T06:47:44.909Z,1.08
2023-07-10T06:50:14.532Z,2.05
2023-07-10T06:52:43.100Z,0.60
2023-07-10T06:55:17.308Z,0.98
2023-07-10T06:57:44.946Z,0.77
2023-07-10T07:00:16.010Z,1.13
2023-07-10T07:02:44.096Z,0.35
2023-07-10T07:05:11.634Z,1.25
2023-07-10T07:07:39.679Z,1.17
2023-07-10T07:10:09.263Z,1.20
2023-07-10T07:12:36.330Z,1.10
2023-07-10T07:15:03.209Z,3.00
2023-07-10T07:17:30.092Z,1.55
2023-07-10T07:19:56.953Z,1.30
2023-07-10T07:22:23.855Z,1.13
2023-07-10T07:24:50.694Z,0.82
2023-07-10T07:27:17.936Z,0.85
2023-07-10T07:29:45.557Z,1.00
2023-07-10T07:32:12.451Z,0.82
2023-07-10T07:34:39.358Z,0.93
2023-07-10T07:37:06.638Z,0.98
2023-07-10T07:39:33.835Z,1.23
2023-07-10T07:42:02.024Z,1.08
2023-07-10T07:44:28.906Z,2.00
2023-07-10T07:46:56.196Z,1.08
2023-07-10T07:49:25.151Z,0.73
2023-07-10T07:51:53.228Z,0.95
2023-07-10T07:54:20.397Z,1.42
2023-07-10T07:56:47.271Z,0.82
2023-07-10T07:59:14.827Z,3.10
2023-07-10T08:01:41.752Z,1.15
2023-07-10T08:04:08.737Z,1.73
2023-07-10T08:06:35.719Z,0.85
2023-07-10T08:09:03.590Z,1.15
2023-07-10T08:11:30.466Z,1.33
2023-07-10T08:13:57.489Z,2.38
2023-07-10T08:16:24.493Z,1.20
2023-07-10T08:18:51.448Z,0.63
2023-07-10T08:21:19.241Z,2.05
2023-07-10T08:23:46.084Z,1.38
2023-07-10T08:26:13.078Z,1.02
2023-07-10T08:28:39.928Z,1.38
2023-07-10T08:31:06.747Z,2.67
2023-07-10T08:33:33.607Z,1.95
2023-07-10T08:36:06.350Z,1.10
2023-07-10T08:38:35.327Z,1.10
2023-07-10T08:41:23.565Z,1.88
2023-07-10T08:43:50.533Z,1.30
2023-07-10T08:46:23.240Z,2.30
2023-07-10T08:49:34.723Z,0.73
2023-07-10T08:52:33.113Z,1.63
2023-07-10T08:54:59.941Z,1.27
2023-07-10T08:57:34.574Z,1.38
2023-07-10T09:00:07.637Z,1.45
2023-07-10T09:02:55.102Z,2.50
2023-07-10T09:05:30.613Z,2.20
2023-07-10T09:08:03.016Z,1.17
2023-07-10T09:10:42.824Z,1.55
2023-07-10T09:13:19.847Z,1.48
2023-07-10T09:15:52.782Z,1.55
2023-07-10T09:18:54.634Z,1.63
2023-07-10T09:21:29.397Z,1.33
2023-07-10T09:23:56.564Z,2.13
2023-07-10T09:26:30.216Z,1.90
2023-07-10T09:29:05.952Z,1.00
2023-07-10T09:32:08.611Z,0.85
2023-07-10T09:34:35.962Z,1.83
2023-07-10T09:37:09.776Z,1.20
2023-07-10T09:39:36.713Z,2.20
2023-07-10T09:42:05.320Z,1.90
2023-07-10T09:44:38.614Z,1.52
2023-07-10T09:47:11.248Z,2.17
2023-07-10T09:49:58.732Z,1.67
2023-07-10T09:52:29.448Z,3.20
2023-07-10T09:55:13.516Z,2.25
2023-07-10T09:57:59.729Z,1.00
2023-07-10T10:00:27.504Z,1.55
2023-07-10T10:03:10.533Z,1.73
2023-07-10T10:05:42.276Z,2.08
2023-07-10T10:08:29.286Z,1.85
2023-07-10T10:11:07.392Z,1.17
2023-07-10T10:13:41.038Z,2.45
2023-07-10T10:16:32.063Z,1.73
2023-07-10T10:19:25.090Z,1.80
2023-07-10T10:21:52.030Z,1.67
2023-07-10T10:24:19.185Z,1.42
2023-07-10T10:27:12.246Z,1.13
2023-07-10T10:30:10.911Z,1.15
2023-07-10T10:32:57.379Z,1.67
2023-07-10T10:35:32.101Z,1.25
2023-07-10T10:38:13.286Z,2.80
2023-07-10T10:41:00.322Z,1.67
2023-07-10T10:43:33.062Z,1.65
2023-07-10T10:46:11.010Z,2.08
2023-07-10T10:48:56.529Z,1.58
2023-07-10T10:51:45.901Z,2.17
2023-07-10T10:54:34.353Z,2.00
2023-07-10T10:57:13.431Z,1.67
2023-07-10T10:59:54.535Z,2.15
2023-07-10T11:02:41.660Z,1.38
2023-07-10T11:05:27.225Z,1.55
2023-07-10T11:07:59.551Z,2.53
2023-07-10T11:10:38.296Z,1.80
2023-07-10T11:13:06.983Z,1.98
2023-07-10T11:15:35.528Z,2.20
2023-07-10T11:18:02.799Z,1.40
2023-07-10T11:20:29.993Z,2.00
2023-07-10T11:22:58.757Z,1.63
2023-07-10T11:25:44.484Z,1.67
2023-07-10T11:28:29.401Z,1.88
2023-07-10T11:31:30.239Z,1.98
2023-07-10T11:34:06.437Z,1.80
2023-07-10T11:36:40.411Z,2.40
2023-07-10T11:39:07.179Z,1.58
2023-07-10T11:41:36.800Z,1.48
2023-07-10T11:44:21.087Z,1.67
2023-07-10T11:47:03.478Z,1.08
2023-07-10T11:49:41.826Z,1.70
2023-07-10T11:52:27.415Z,1.65
2023-07-10T11:54:56.931Z,1.17
2023-07-10T11:57:28.044Z,1.60
2023-07-10T12:02:49.955Z,1.48
2023-07-10T12:05:21.549Z,1.75
2023-07-10T12:08:06.452Z,2.05
2023-07-10T12:10:43.732Z,1.55
2023-07-10T12:13:24.390Z,1.48
2023-07-10T12:15:53.541Z,1.88
2023-07-10T12:18:25.467Z,2.13
2023-07-10T12:20:54.481Z,1.88
2023-07-10T12:23:21.435Z,1.65
2023-07-10T12:25:53.185Z,1.70
2023-07-10T12:28:27.651Z,1.90
2023-07-10T12:30:57.660Z,2.05
2023-07-10T12:33:43.690Z,2.20
2023-07-10T12:36:27.918Z,2.38
2023-07-10T12:38:58.163Z,2.65
2023-07-10T12:45:17.183Z,1.85
2023-07-10T12:47:58.748Z,1.63
2023-07-10T12:50:37.860Z,1.95
2023-07-10T12:53:07.022Z,2.33
2023-07-10T12:55:34.540Z,2.03
2023-07-10T12:58:04.884Z,2.08
2023-07-10T13:00:43.422Z,1.52
2023-07-10T13:03:31.950Z,2.75
2023-07-10T13:06:11.571Z,1.80
2023-07-10T13:08:45.318Z,1.98
2023-07-10T13:11:35.711Z,2.25
2023-07-10T13:16:44.809Z,1.73
2023-07-10T13:19:11.904Z,2.33
2023-07-10T13:21:38.868Z,1.58
2023-07-10T13:24:06.141Z,2.10
2023-07-10T13:26:33.004Z,1.98
2023-07-10T13:28:59.890Z,2.05
2023-07-10T13:31:31.722Z,1.65
2023-07-10T13:33:58.750Z,1.75
2023-07-10T13:36:28.165Z,1.77
2023-07-10T13:38:55.488Z,1.48
2023-07-10T13:41:25.287Z,2.00
2023-07-10T13:43:52.819Z,1.55
2023-07-10T13:46:31.932Z,2.25
2023-07-10T13:49:05.811Z,1.23
2023-07-10T13:51:34.642Z,2.28
2023-07-10T13:54:03.050Z,1.73
2023-07-10T13:56:36.772Z,1.92
2023-07-10T14:03:05.954Z,1.15
2023-07-10T14:08:17.325Z,1.70
2023-07-10T14:10:51.999Z,1.75
2023-07-10T14:13:19.512Z,2.13
2023-07-10T14:15:47.229Z,1.95
2023-07-10T14:18:23.944Z,1.92
2023-07-10T14:20:50.811Z,1.60
2023-07-10T14:23:19.976Z,1.88
2023-07-10T14:25:48.428Z,2.67
2023-07-10T14:28:21.481Z,2.03
2023-07-10T14:30:49.127Z,1.63
2023-07-10T14:33:16.414Z,1.85
2023-07-10T14:35:44.183Z,1.88
2023-07-10T14:38:19.258Z,1.55
2023-07-10T14:40:46.597Z,1.33
2023-07-10T14:43:13.613Z,1.92
2023-07-10T14:45:53.084Z,0.93
2023-07-10T14:48:22.595Z,1.67
2023-07-10T14:50:50.121Z,2.03
2023-07-10T14:53:22.655Z,1.35
2023-07-10T14:55:54.877Z,1.13
2023-07-10T14:58:25.027Z,1.35
2023-07-10T15:00:53.651Z,0.60
2023-07-10T15:03:21.297Z,0.50
2023-07-10T15:05:50.644Z,0.50
2023-07-10T15:08:20.506Z,0.47
2023-07-10T15:10:47.461Z,0.40
2023-07-10T15:13:20.366Z,0.50
2023-07-10T15:15:48.088Z,1.40
2023-07-10T15:18:17.157Z,0.47
2023-07-10T15:20:45.556Z,0.73
2023-07-10T15:23:23.418Z,0.57
2023-07-10T15:25:52.312Z,0.47
2023-07-10T15:28:20.239Z,0.60
2023-07-10T15:30:59.434Z,0.93
2023-07-10T15:33:30.816Z,0.85
2023-07-10T15:38:24.366Z,0.82
2023-07-10T15:40:58.032Z,0.82
2023-07-10T15:43:34.296Z,0.65
2023-07-10T15:46:01.853Z,0.65
2023-07-10T15:48:29.753Z,0.57
2023-07-10T15:50:58.305Z,0.93
2023-07-10T15:53:30.429Z,0.82
2023-07-10T15:55:57.902Z,0.95
2023-07-10T15:58:26.027Z,0.47
2023-07-10T16:00:55.862Z,0.60
2023-07-10T16:03:28.954Z,0.60
2023-07-10T16:05:58.882Z,0.85
2023-07-10T16:08:28.530Z,0.73
2023-07-10T16:10:59.159Z,0.70
2023-07-10T16:13:28.197Z,0.40
2023-07-10T16:15:55.077Z,0.95
2023-07-10T16:18:31.468Z,0.30
2023-07-10T16:21:03.200Z,1.58
2023-07-10T16:23:53.841Z,0.73
2023-07-10T16:26:22.430Z,1.08
2023-07-10T16:28:49.323Z,0.60
2023-07-10T16:31:20.723Z,0.93
2023-07-10T16:33:47.633Z,0.52
2023-07-10T16:36:15.714Z,0.45
2023-07-10T16:38:42.678Z,1.05
2023-07-10T16:41:16.257Z,0.73
2023-07-10T16:43:43.829Z,1.38
2023-07-10T16:46:12.584Z,1.15
2023-07-10T16:48:40.813Z,0.88
2023-07-10T16:51:20.996Z,0.82
2023-07-10T16:53:47.839Z,0.52
2023-07-10T16:56:19.306Z,1.00
2023-07-10T16:58:46.584Z,0.57
2023-07-10T17:01:34.006Z,0.70
2023-07-10T17:04:01.966Z,0.77
2023-07-10T17:06:33.897Z,0.30
2023-07-10T17:09:05.451Z,0.73
2023-07-10T17:11:35.224Z,0.70
2023-07-10T17:14:02.776Z,0.30
2023-07-10T17:16:29.830Z,1.10
2023-07-10T17:18:56.724Z,0.57
2023-07-10T17:21:23.599Z,1.02
2023-07-10T17:23:50.552Z,0.73
2023-07-10T17:26:20.577Z,0.40
2023-07-10T17:28:48.195Z,0.93
2023-07-10T17:31:28.096Z,0.82
2023-07-10T17:34:25.709Z,0.95
2023-07-10T17:36:52.536Z,0.50
2023-07-10T17:39:24.376Z,0.52
2023-07-10T17:41:53.850Z,0.50
2023-07-10T17:44:26.441Z,0.52
2023-07-10T17:46:53.915Z,0.70
2023-07-10T17:49:21.409Z,0.70
2023-07-10T17:51:48.691Z,1.27
2023-07-10T17:54:35.393Z,1.35
2023-07-10T17:57:03.667Z,0.57
2023-07-10T17:59:30.741Z,0.40
2023-07-10T18:02:00.138Z,0.90
2023-07-10T18:04:28.080Z,0.43
2023-07-10T18:06:55.190Z,0.55
2023-07-10T18:09:27.481Z,0.77
2023-07-10T18:11:56.049Z,0.60
2023-07-10T18:14:23.849Z,0.40
2023-07-10T18:16:50.911Z,1.02
2023-07-10T18:19:19.881Z,0.60
2023-07-10T18:21:52.379Z,0.75
2023-07-10T18:24:24.415Z,0.55
2023-07-10T18:26:51.819Z,1.00
2023-07-10T18:29:18.784Z,0.90
2023-07-10T18:31:45.706Z,0.40
2023-07-10T18:34:21.727Z,0.47
2023-07-10T18:36:49.896Z,0.60
2023-07-10T18:39:19.653Z,0.65
2023-07-10T18:41:47.306Z,0.28
2023-07-10T18:44:16.448Z,0.52
2023-07-10T18:46:43.448Z,0.40
2023-07-10T18:49:20.279Z,0.22
2023-07-10T18:51:49.146Z,0.47
2023-07-10T18:54:19.847Z,1.08
2023-07-10T18:56:46.851Z,0.30
2023-07-10T18:59:21.901Z,0.80
2023-07-10T19:01:52.788Z,1.10
2023-07-10T19:04:21.417Z,0.47
2023-07-10T19:06:51.477Z,0.47
2023-07-10T19:09:21.420Z,1.00
2023-07-10T19:11:48.851Z,0.93
2023-07-10T19:14:17.701Z,1.13
2023-07-10T19:17:22.250Z,0.52
2023-07-10T19:19:58.313Z,0.55
2023-07-10T19:22:25.143Z,0.88
2023-07-10T19:24:52.910Z,0.85
2023-07-10T19:27:19.821Z,0.77
2023-07-10T19:32:25.205Z,0.45
2023-07-10T19:34:53.437Z,0.82
2023-07-10T19:37:20.315Z,0.60
2023-07-10T19:39:47.934Z,0.52
2023-07-10T19:42:14.962Z,0.75
2023-07-10T19:44:48.150Z,0.95
2023-07-10T19:47:17.808Z,0.70
2023-07-10T19:50:20.972Z,1.13
2023-07-10T19:52:48.216Z,0.68
2023-07-10T19:55:16.486Z,0.68
2023-07-10T19:57:44.024Z,0.63
2023-07-10T20:00:26.637Z,0.40
2023-07-10T20:02:53.583Z,0.55
2023-07-10T20:05:20.552Z,0.43
2023-07-10T20:07:47.374Z,0.20
2023-07-10T20:10:21.114Z,1.95
2023-07-10T20:12:49.985Z,1.08
2023-07-10T20:15:16.909Z,0.45
2023-07-10T20:17:46.718Z,0.57
2023-07-10T20:20:19.039Z,0.35
2023-07-10T20:22:46.141Z,0.35
2023-07-10T20:25:13.034Z,1.48
2023-07-10T20:27:39.921Z,0.25
2023-07-10T20:30:07.429Z,0.82
2023-07-10T20:32:34.552Z,0.45
2023-07-10T20:35:01.429Z,0.28
2023-07-10T20:37:28.229Z,0.30
2023-07-10T20:39:55.175Z,1.20
2023-07-10T20:42:23.232Z,0.88
2023-07-10T20:44:50.941Z,0.30
2023-07-10T20:47:18.059Z,0.50
2023-07-10T20:49:48.050Z,0.63
2023-07-10T20:52:18.041Z,1.10
2023-07-10T20:54:48.228Z,0.32
2023-07-10T20:57:15.505Z,0.52
2023-07-10T20:59:42.455Z,0.50
2023-07-10T21:02:20.734Z,0.32
2023-07-10T21:04:47.784Z,0.10
2023-07-10T21:07:18.396Z,0.68
2023-07-10T21:09:48.306Z,1.42
2023-07-10T21:12:18.195Z,0.57
2023-07-10T21:14:46.095Z,0.45
2023-07-10T21:17:22.513Z,0.30
2023-07-10T21:19:49.916Z,0.63
2023-07-10T21:22:18.457Z,0.30
2023-07-10T21:24:48.642Z,0.65
2023-07-10T21:27:26.369Z,0.88
2023-07-10T21:29:54.209Z,1.17
2023-07-10T21:32:25.473Z,0.60
2023-07-10T21:37:20.175Z,0.10
2023-07-10T21:39:47.088Z,0.40
2023-07-10T21:42:25.757Z,0.52
2023-07-10T21:44:54.477Z,0.32
2023-07-10T21:47:21.830Z,0.35
2023-07-10T21:49:49.358Z,1.15
2023-07-10T21:52:16.393Z,0.47
2023-07-10T21:54:43.248Z,0.68
2023-07-10T21:57:22.468Z,1.42
2023-07-10T21:59:49.509Z,0.10
2023-07-10T22:02:16.504Z,0.22
2023-07-10T22:04:43.354Z,0.75
2023-07-10T22:07:10.215Z,0.45
2023-07-10T22:09:37.065Z,0.65
2023-07-10T22:12:04.292Z,0.93
2023-07-10T22:14:31.184Z,1.05
2023-07-10T22:17:13.804Z,0.57
2023-07-10T22:19:43.550Z,0.98
2023-07-10T22:22:11.671Z,0.40
2023-07-10T22:24:38.643Z,0.65
2023-07-10T22:27:05.926Z,0.82
2023-07-10T22:29:32.941Z,0.57
2023-07-10T22:31:59.874Z,0.60
2023-07-10T22:34:26.857Z,0.73
2023-07-10T22:36:53.673Z,0.85
2023-07-10T22:39:20.519Z,0.45
2023-07-10T22:41:47.381Z,0.57
2023-07-10T22:44:17.071Z,1.23
2023-07-10T22:46:45.769Z,0.47
2023-07-10T22:49:14.514Z,0.43
2023-07-10T22:51:42.759Z,0.20
2023-07-10T22:54:11.526Z,0.22
2023-07-10T22:56:42.127Z,0.47
2023-07-10T22:59:16.049Z,0.40
2023-07-10T23:01:44.578Z,1.17
2023-07-10T23:04:12.545Z,0.63
2023-07-10T23:06:39.480Z,0.75
2023-07-10T23:09:06.871Z,0.25
2023-07-10T23:11:33.738Z,0.82
2023-07-10T23:14:00.945Z,0.38
2023-07-10T23:16:27.993Z,0.55
2023-07-10T23:18:57.468Z,1.10
2023-07-10T23:21:25.800Z,0.52
2023-07-10T23:23:53.124Z,1.13
2023-07-10T23:26:21.844Z,0.50
2023-07-10T23:28:48.918Z,0.40
2023-07-10T23:31:21.627Z,1.05
2023-07-10T23:33:49.819Z,0.85
2023-07-10T23:36:27.517Z,0.77
2023-07-10T23:38:56.651Z,0.73
2023-07-10T23:41:23.906Z,0.40
2023-07-10T23:43:50.779Z,0.15
2023-07-10T23:46:17.966Z,0.25
2023-07-10T23:48:44.957Z,0.35
2023-07-10T23:51:11.804Z,0.43
2023-07-10T23:53:39.056Z,0.73
2023-07-10T23:56:06.618Z,0.40
2023-07-10T23:58:33.640Z,0.80
